sensor_id;sensor_type;location;lat;lon;timestamp;P1;durP1;ratioP1;P2;durP2;ratioP2
13085;SDS011;6609;49.882;8.664;2023-09-08T00:01:00;8.50;;;5.43;;
13085;SDS011;6609;49.882;8.664;2023-09-08T00:03:28;7.47;;;5.00;;
13085;SDS011;6609;49.882;8.664;2023-09-08T00:05:55;7.30;;;4.67;;
13085;SDS011;6609;49.882;8.664;2023-09-08T00:08:21;8.43;;;5.57;;
13085;SDS011;6609;49.882;8.664;2023-09-08T00:10:49;11.87;;;5.07;;
13085;SDS011;6609;49.882;8.664;2023-09-08T00:13:17;9.73;;;5.60;;
13085;SDS011;6609;49.882;8.664;2023-09-08T00:15:43;12.27;;;5.20;;
13085;SDS011;6609;49.882;8.664;2023-09-08T00:18:13;7.40;;;4.97;;
13085;SDS011;6609;49.882;8.664;2023-09-08T00:20:40;8.23;;;5.57;;
13085;SDS011;6609;49.882;8.664;2023-09-08T00:23:08;9.57;;;5.47;;
13085;SDS011;6609;49.882;8.664;2023-09-08T00:25:34;6.63;;;4.53;;
13085;SDS011;6609;49.882;8.664;2023-09-08T00:28:01;11.27;;;5.37;;
13085;SDS011;6609;49.882;8.664;2023-09-08T00:30:28;8.50;;;4.97;;
13085;SDS011;6609;49.882;8.664;2023-09-08T00:32:55;6.90;;;4.90;;
13085;SDS011;6609;49.882;8.664;2023-09-08T00:35:24;6.73;;;5.00;;
13085;SDS011;6609;49.882;8.664;2023-09-08T00:37:51;6.43;;;5.07;;
13085;SDS011;6609;49.882;8.664;2023-09-08T00:40:18;8.30;;;4.90;;
13085;SDS011;6609;49.882;8.664;2023-09-08T00:42:45;7.97;;;5.23;;
13085;SDS011;6609;49.882;8.664;2023-09-08T00:45:13;11.23;;;5.97;;
13085;SDS011;6609;49.882;8.664;2023-09-08T00:47:40;6.47;;;5.00;;
13085;SDS011;6609;49.882;8.664;2023-09-08T00:50:07;6.70;;;5.20;;
13085;SDS011;6609;49.882;8.664;2023-09-08T00:52:36;11.90;;;5.83;;
13085;SDS011;6609;49.882;8.664;2023-09-08T00:55:04;8.10;;;5.20;;
13085;SDS011;6609;49.882;8.664;2023-09-08T00:57:31;7.83;;;5.43;;
13085;SDS011;6609;49.882;8.664;2023-09-08T00:59:58;8.27;;;4.83;;
13085;SDS011;6609;49.882;8.664;2023-09-08T01:02:25;11.87;;;5.43;;
13085;SDS011;6609;49.882;8.664;2023-09-08T01:04:55;9.67;;;6.00;;
13085;SDS011;6609;49.882;8.664;2023-09-08T01:07:25;9.17;;;5.53;;
13085;SDS011;6609;49.882;8.664;2023-09-08T01:09:54;9.33;;;6.00;;
13085;SDS011;6609;49.882;8.664;2023-09-08T01:12:21;8.47;;;5.40;;
13085;SDS011;6609;49.882;8.664;2023-09-08T01:14:49;10.80;;;5.23;;
13085;SDS011;6609;49.882;8.664;2023-09-08T01:17:16;8.57;;;5.67;;
13085;SDS011;6609;49.882;8.664;2023-09-08T01:19:43;7.27;;;4.90;;
13085;SDS011;6609;49.882;8.664;2023-09-08T01:22:21;7.60;;;4.83;;
13085;SDS011;6609;49.882;8.664;2023-09-08T01:25:04;6.93;;;5.47;;
13085;SDS011;6609;49.882;8.664;2023-09-08T01:27:37;8.43;;;4.80;;
13085;SDS011;6609;49.882;8.664;2023-09-08T01:30:06;8.27;;;5.53;;
13085;SDS011;6609;49.882;8.664;2023-09-08T01:32:33;10.00;;;5.20;;
13085;SDS011;6609;49.882;8.664;2023-09-08T01:35:01;10.90;;;6.20;;
13085;SDS011;6609;49.882;8.664;2023-09-08T01:37:28;9.53;;;5.53;;
13085;SDS011;6609;49.882;8.664;2023-09-08T01:39:54;6.70;;;5.33;;
13085;SDS011;6609;49.882;8.664;2023-09-08T01:42:22;7.97;;;5.23;;
13085;SDS011;6609;49.882;8.664;2023-09-08T01:44:49;6.10;;;5.10;;
13085;SDS011;6609;49.882;8.664;2023-09-08T01:47:16;8.93;;;5.47;;
13085;SDS011;6609;49.882;8.664;2023-09-08T01:49:43;8.40;;;5.50;;
13085;SDS011;6609;49.882;8.664;2023-09-08T01:52:10;5.60;;;4.97;;
13085;SDS011;6609;49.882;8.664;2023-09-08T01:54:37;10.70;;;4.97;;
13085;SDS011;6609;49.882;8.664;2023-09-08T01:57:03;7.77;;;4.83;;
13085;SDS011;6609;49.882;8.664;2023-09-08T01:59:32;9.97;;;5.60;;
13085;SDS011;6609;49.882;8.664;2023-09-08T02:01:59;7.93;;;5.17;;
13085;SDS011;6609;49.882;8.664;2023-09-08T02:04:26;7.67;;;5.60;;
13085;SDS011;6609;49.882;8.664;2023-09-08T02:06:53;7.90;;;5.53;;
13085;SDS011;6609;49.882;8.664;2023-09-08T02:09:20;8.33;;;6.27;;
13085;SDS011;6609;49.882;8.664;2023-09-08T02:11:47;8.10;;;5.07;;
13085;SDS011;6609;49.882;8.664;2023-09-08T02:14:14;9.60;;;5.00;;
13085;SDS011;6609;49.882;8.664;2023-09-08T02:16:42;10.00;;;5.13;;
13085;SDS011;6609;49.882;8.664;2023-09-08T02:19:09;8.70;;;5.90;;
13085;SDS011;6609;49.882;8.664;2023-09-08T02:21:36;11.00;;;5.27;;
13085;SDS011;6609;49.882;8.664;2023-09-08T02:24:02;7.77;;;4.97;;
13085;SDS011;6609;49.882;8.664;2023-09-08T02:26:30;10.23;;;5.87;;
13085;SDS011;6609;49.882;8.664;2023-09-08T02:28:58;11.03;;;5.17;;
13085;SDS011;6609;49.882;8.664;2023-09-08T02:31:25;8.13;;;5.27;;
13085;SDS011;6609;49.882;8.664;2023-09-08T02:33:54;7.67;;;5.87;;
13085;SDS011;6609;49.882;8.664;2023-09-08T02:36:20;6.47;;;5.03;;
13085;SDS011;6609;49.882;8.664;2023-09-08T02:38:50;8.00;;;5.10;;
13085;SDS011;6609;49.882;8.664;2023-09-08T02:41:17;9.57;;;5.13;;
13085;SDS011;6609;49.882;8.664;2023-09-08T02:43:44;6.23;;;5.20;;
13085;SDS011;6609;49.882;8.664;2023-09-08T02:46:11;9.40;;;6.30;;
13085;SDS011;6609;49.882;8.664;2023-09-08T02:48:38;8.13;;;5.37;;
13085;SDS011;6609;49.882;8.664;2023-09-08T02:51:06;9.07;;;5.27;;
13085;SDS011;6609;49.882;8.664;2023-09-08T02:53:33;11.13;;;5.60;;
13085;SDS011;6609;49.882;8.664;2023-09-08T02:56:00;8.27;;;6.27;;
13085;SDS011;6609;49.882;8.664;2023-09-08T02:58:28;8.93;;;5.80;;
13085;SDS011;6609;49.882;8.664;2023-09-08T03:00:55;9.90;;;5.40;;
13085;SDS011;6609;49.882;8.664;2023-09-08T03:03:22;7.60;;;5.97;;
13085;SDS011;6609;49.882;8.664;2023-09-08T03:05:53;6.67;;;5.60;;
13085;SDS011;6609;49.882;8.664;2023-09-08T03:08:21;8.13;;;5.50;;
13085;SDS011;6609;49.882;8.664;2023-09-08T03:10:49;10.10;;;6.00;;
13085;SDS011;6609;49.882;8.664;2023-09-08T03:13:15;8.77;;;5.77;;
13085;SDS011;6609;49.882;8.664;2023-09-08T03:15:42;7.70;;;5.63;;
13085;SDS011;6609;49.882;8.664;2023-09-08T03:18:09;6.77;;;5.60;;
13085;SDS011;6609;49.882;8.664;2023-09-08T03:20:36;7.60;;;5.60;;
13085;SDS011;6609;49.882;8.664;2023-09-08T03:23:02;7.00;;;5.27;;
13085;SDS011;6609;49.882;8.664;2023-09-08T03:25:31;10.00;;;6.47;;
13085;SDS011;6609;49.882;8.664;2023-09-08T03:27:58;7.27;;;5.67;;
13085;SDS011;6609;49.882;8.664;2023-09-08T03:30:24;11.03;;;5.97;;
13085;SDS011;6609;49.882;8.664;2023-09-08T03:32:51;8.33;;;6.67;;
13085;SDS011;6609;49.882;8.664;2023-09-08T03:35:19;10.17;;;5.93;;
13085;SDS011;6609;49.882;8.664;2023-09-08T03:37:46;8.83;;;5.60;;
13085;SDS011;6609;49.882;8.664;2023-09-08T03:40:13;7.00;;;5.50;;
13085;SDS011;6609;49.882;8.664;2023-09-08T03:42:41;7.97;;;6.43;;
13085;SDS011;6609;49.882;8.664;2023-09-08T03:45:08;7.23;;;5.20;;
13085;SDS011;6609;49.882;8.664;2023-09-08T03:47:35;7.00;;;4.65;;
13085;SDS011;6609;49.882;8.664;2023-09-08T03:50:03;7.97;;;5.67;;
13085;SDS011;6609;49.882;8.664;2023-09-08T03:52:30;7.97;;;5.63;;
13085;SDS011;6609;49.882;8.664;2023-09-08T03:54:57;8.20;;;6.17;;
13085;SDS011;6609;49.882;8.664;2023-09-08T03:57:24;6.50;;;5.40;;
13085;SDS011;6609;49.882;8.664;2023-09-08T03:59:52;11.83;;;5.87;;
13085;SDS011;6609;49.882;8.664;2023-09-08T04:02:19;8.40;;;5.57;;
13085;SDS011;6609;49.882;8.664;2023-09-08T04:04:46;7.60;;;5.43;;
13085;SDS011;6609;49.882;8.664;2023-09-08T04:07:13;6.83;;;5.23;;
13085;SDS011;6609;49.882;8.664;2023-09-08T04:09:40;6.67;;;4.93;;
13085;SDS011;6609;49.882;8.664;2023-09-08T04:12:07;6.60;;;5.40;;
13085;SDS011;6609;49.882;8.664;2023-09-08T04:14:36;7.63;;;5.40;;
13085;SDS011;6609;49.882;8.664;2023-09-08T04:17:04;6.93;;;5.43;;
13085;SDS011;6609;49.882;8.664;2023-09-08T04:19:31;8.10;;;5.53;;
13085;SDS011;6609;49.882;8.664;2023-09-08T04:21:57;9.30;;;6.17;;
13085;SDS011;6609;49.882;8.664;2023-09-08T04:24:24;6.63;;;5.50;;
13085;SDS011;6609;49.882;8.664;2023-09-08T04:26:51;7.80;;;5.50;;
13085;SDS011;6609;49.882;8.664;2023-09-08T04:29:18;7.00;;;5.77;;
13085;SDS011;6609;49.882;8.664;2023-09-08T04:31:45;8.30;;;5.50;;
13085;SDS011;6609;49.882;8.664;2023-09-08T04:34:13;7.30;;;5.80;;
13085;SDS011;6609;49.882;8.664;2023-09-08T04:36:41;9.13;;;5.87;;
13085;SDS011;6609;49.882;8.664;2023-09-08T04:39:07;7.00;;;5.40;;
13085;SDS011;6609;49.882;8.664;2023-09-08T04:41:36;7.00;;;5.50;;
13085;SDS011;6609;49.882;8.664;2023-09-08T04:44:03;8.70;;;6.13;;
13085;SDS011;6609;49.882;8.664;2023-09-08T04:46:30;11.23;;;6.00;;
13085;SDS011;6609;49.882;8.664;2023-09-08T04:48:57;11.33;;;5.67;;
13085;SDS011;6609;49.882;8.664;2023-09-08T04:51:25;6.10;;;5.07;;
13085;SDS011;6609;49.882;8.664;2023-09-08T04:53:51;9.53;;;6.33;;
13085;SDS011;6609;49.882;8.664;2023-09-08T04:56:19;7.53;;;5.83;;
13085;SDS011;6609;49.882;8.664;2023-09-08T04:58:46;7.30;;;5.40;;
13085;SDS011;6609;49.882;8.664;2023-09-08T05:01:13;11.00;;;6.37;;
13085;SDS011;6609;49.882;8.664;2023-09-08T05:03:40;7.90;;;5.33;;
13085;SDS011;6609;49.882;8.664;2023-09-08T05:06:07;8.70;;;5.30;;
13085;SDS011;6609;49.882;8.664;2023-09-08T05:08:35;8.60;;;5.27;;
13085;SDS011;6609;49.882;8.664;2023-09-08T05:11:02;7.43;;;5.37;;
13085;SDS011;6609;49.882;8.664;2023-09-08T05:13:29;6.80;;;5.67;;
13085;SDS011;6609;49.882;8.664;2023-09-08T05:15:56;8.97;;;5.00;;
13085;SDS011;6609;49.882;8.664;2023-09-08T05:18:25;7.17;;;5.37;;
13085;SDS011;6609;49.882;8.664;2023-09-08T05:20:52;6.37;;;5.20;;
13085;SDS011;6609;49.882;8.664;2023-09-08T05:23:19;6.33;;;5.70;;
13085;SDS011;6609;49.882;8.664;2023-09-08T05:25:47;8.23;;;5.20;;
13085;SDS011;6609;49.882;8.664;2023-09-08T05:28:14;12.73;;;5.30;;
13085;SDS011;6609;49.882;8.664;2023-09-08T05:30:41;6.53;;;5.10;;
13085;SDS011;6609;49.882;8.664;2023-09-08T05:33:08;6.77;;;5.10;;
13085;SDS011;6609;49.882;8.664;2023-09-08T05:35:35;8.40;;;4.93;;
13085;SDS011;6609;49.882;8.664;2023-09-08T05:38:04;7.20;;;4.43;;
13085;SDS011;6609;49.882;8.664;2023-09-08T05:40:31;6.20;;;5.43;;
13085;SDS011;6609;49.882;8.664;2023-09-08T05:42:59;6.40;;;4.73;;
13085;SDS011;6609;49.882;8.664;2023-09-08T05:45:25;8.47;;;5.30;;
13085;SDS011;6609;49.882;8.664;2023-09-08T05:47:52;6.37;;;5.00;;
13085;SDS011;6609;49.882;8.664;2023-09-08T05:50:19;7.23;;;5.43;;
13085;SDS011;6609;49.882;8.664;2023-09-08T05:52:46;7.50;;;4.90;;
13085;SDS011;6609;49.882;8.664;2023-09-08T05:55:13;8.03;;;6.03;;
13085;SDS011;6609;49.882;8.664;2023-09-08T05:57:40;5.87;;;4.93;;
13085;SDS011;6609;49.882;8.664;2023-09-08T06:00:09;8.47;;;4.80;;
13085;SDS011;6609;49.882;8.664;2023-09-08T06:02:37;7.20;;;4.83;;
13085;SDS011;6609;49.882;8.664;2023-09-08T06:05:04;8.10;;;5.10;;
13085;SDS011;6609;49.882;8.664;2023-09-08T06:07:31;5.90;;;5.23;;
13085;SDS011;6609;49.882;8.664;2023-09-08T06:09:58;6.10;;;5.07;;
13085;SDS011;6609;49.882;8.664;2023-09-08T06:12:25;7.50;;;5.37;;
13085;SDS011;6609;49.882;8.664;2023-09-08T06:14:52;10.77;;;5.17;;
13085;SDS011;6609;49.882;8.664;2023-09-08T06:17:21;8.40;;;4.80;;
13085;SDS011;6609;49.882;8.664;2023-09-08T06:19:48;7.23;;;5.57;;
13085;SDS011;6609;49.882;8.664;2023-09-08T06:22:15;7.50;;;5.17;;
13085;SDS011;6609;49.882;8.664;2023-09-08T06:24:42;6.37;;;4.77;;
13085;SDS011;6609;49.882;8.664;2023-09-08T06:27:09;5.67;;;4.80;;
13085;SDS011;6609;49.882;8.664;2023-09-08T06:29:36;4.97;;;4.47;;
13085;SDS011;6609;49.882;8.664;2023-09-08T06:32:04;5.80;;;5.00;;
13085;SDS011;6609;49.882;8.664;2023-09-08T06:34:33;6.27;;;4.63;;
13085;SDS011;6609;49.882;8.664;2023-09-08T06:37:00;6.00;;;4.57;;
13085;SDS011;6609;49.882;8.664;2023-09-08T06:39:27;7.07;;;4.33;;
13085;SDS011;6609;49.882;8.664;2023-09-08T06:41:54;5.87;;;5.10;;
13085;SDS011;6609;49.882;8.664;2023-09-08T06:44:21;5.33;;;4.40;;
13085;SDS011;6609;49.882;8.664;2023-09-08T06:46:48;11.30;;;6.17;;
13085;SDS011;6609;49.882;8.664;2023-09-08T06:49:15;5.33;;;4.20;;
13085;SDS011;6609;49.882;8.664;2023-09-08T06:51:43;5.43;;;4.47;;
13085;SDS011;6609;49.882;8.664;2023-09-08T06:54:12;5.43;;;4.60;;
13085;SDS011;6609;49.882;8.664;2023-09-08T06:56:39;7.17;;;5.27;;
13085;SDS011;6609;49.882;8.664;2023-09-08T06:59:06;8.13;;;4.70;;
13085;SDS011;6609;49.882;8.664;2023-09-08T07:01:33;7.70;;;4.40;;
13085;SDS011;6609;49.882;8.664;2023-09-08T07:04:00;6.27;;;4.60;;
13085;SDS011;6609;49.882;8.664;2023-09-08T07:06:28;5.67;;;4.50;;
13085;SDS011;6609;49.882;8.664;2023-09-08T07:08:57;6.80;;;4.87;;
13085;SDS011;6609;49.882;8.664;2023-09-08T07:11:23;6.87;;;5.10;;
13085;SDS011;6609;49.882;8.664;2023-09-08T07:13:50;5.77;;;4.60;;
13085;SDS011;6609;49.882;8.664;2023-09-08T07:16:17;6.20;;;4.60;;
13085;SDS011;6609;49.882;8.664;2023-09-08T07:18:44;5.57;;;4.70;;
13085;SDS011;6609;49.882;8.664;2023-09-08T07:21:11;7.83;;;4.33;;
13085;SDS011;6609;49.882;8.664;2023-09-08T07:23:38;5.80;;;4.73;;
13085;SDS011;6609;49.882;8.664;2023-09-08T07:26:06;6.17;;;4.87;;
13085;SDS011;6609;49.882;8.664;2023-09-08T07:28:33;6.70;;;4.40;;
13085;SDS011;6609;49.882;8.664;2023-09-08T07:31:00;6.40;;;4.30;;
13085;SDS011;6609;49.882;8.664;2023-09-08T07:33:27;5.87;;;4.43;;
13085;SDS011;6609;49.882;8.664;2023-09-08T07:35:55;5.13;;;4.60;;
13085;SDS011;6609;49.882;8.664;2023-09-08T07:38:22;5.97;;;3.93;;
13085;SDS011;6609;49.882;8.664;2023-09-08T07:40:49;5.40;;;4.63;;
13085;SDS011;6609;49.882;8.664;2023-09-08T07:43:17;6.73;;;4.23;;
13085;SDS011;6609;49.882;8.664;2023-09-08T07:45:44;4.47;;;4.03;;
13085;SDS011;6609;49.882;8.664;2023-09-08T07:48:11;5.00;;;4.50;;
13085;SDS011;6609;49.882;8.664;2023-09-08T07:50:38;6.10;;;4.80;;
13085;SDS011;6609;49.882;8.664;2023-09-08T07:53:06;5.37;;;4.47;;
13085;SDS011;6609;49.882;8.664;2023-09-08T07:55:32;5.00;;;4.27;;
13085;SDS011;6609;49.882;8.664;2023-09-08T07:58:00;7.97;;;4.50;;
13085;SDS011;6609;49.882;8.664;2023-09-08T08:00:29;7.37;;;3.93;;
13085;SDS011;6609;49.882;8.664;2023-09-08T08:02:57;5.17;;;4.67;;
13085;SDS011;6609;49.882;8.664;2023-09-08T08:05:24;5.90;;;4.53;;
13085;SDS011;6609;49.882;8.664;2023-09-08T08:07:51;7.33;;;4.67;;
13085;SDS011;6609;49.882;8.664;2023-09-08T08:10:18;7.07;;;4.33;;
13085;SDS011;6609;49.882;8.664;2023-09-08T08:12:46;5.23;;;3.93;;
13085;SDS011;6609;49.882;8.664;2023-09-08T08:15:13;5.90;;;4.30;;
13085;SDS011;6609;49.882;8.664;2023-09-08T08:17:41;6.20;;;4.50;;
13085;SDS011;6609;49.882;8.664;2023-09-08T08:20:09;4.83;;;3.90;;
13085;SDS011;6609;49.882;8.664;2023-09-08T08:22:42;5.10;;;4.43;;
13085;SDS011;6609;49.882;8.664;2023-09-08T08:25:09;5.97;;;4.23;;
13085;SDS011;6609;49.882;8.664;2023-09-08T08:27:36;5.00;;;4.20;;
13085;SDS011;6609;49.882;8.664;2023-09-08T08:30:03;6.80;;;4.43;;
13085;SDS011;6609;49.882;8.664;2023-09-08T08:32:30;7.93;;;4.77;;
13085;SDS011;6609;49.882;8.664;2023-09-08T08:34:58;5.23;;;3.97;;
13085;SDS011;6609;49.882;8.664;2023-09-08T08:37:25;5.73;;;4.13;;
13085;SDS011;6609;49.882;8.664;2023-09-08T08:39:53;5.57;;;4.13;;
13085;SDS011;6609;49.882;8.664;2023-09-08T08:42:20;6.30;;;4.57;;
13085;SDS011;6609;49.882;8.664;2023-09-08T08:44:47;5.73;;;4.17;;
13085;SDS011;6609;49.882;8.664;2023-09-08T08:47:15;6.57;;;4.27;;
13085;SDS011;6609;49.882;8.664;2023-09-08T08:49:43;5.43;;;4.17;;
13085;SDS011;6609;49.882;8.664;2023-09-08T08:52:13;6.37;;;4.23;;
13085;SDS011;6609;49.882;8.664;2023-09-08T08:54:42;5.20;;;4.00;;
13085;SDS011;6609;49.882;8.664;2023-09-08T08:57:11;6.77;;;4.23;;
13085;SDS011;6609;49.882;8.664;2023-09-08T08:59:38;6.70;;;4.47;;
13085;SDS011;6609;49.882;8.664;2023-09-08T09:02:06;4.90;;;3.93;;
13085;SDS011;6609;49.882;8.664;2023-09-08T09:04:35;7.40;;;4.37;;
13085;SDS011;6609;49.882;8.664;2023-09-08T09:07:03;9.83;;;4.10;;
13085;SDS011;6609;49.882;8.664;2023-09-08T09:09:33;5.10;;;3.90;;
13085;SDS011;6609;49.882;8.664;2023-09-08T09:12:02;6.30;;;4.80;;
13085;SDS011;6609;49.882;8.664;2023-09-08T09:14:31;5.67;;;4.50;;
13085;SDS011;6609;49.882;8.664;2023-09-08T09:16:58;10.00;;;4.23;;
13085;SDS011;6609;49.882;8.664;2023-09-08T09:19:26;7.10;;;4.27;;
13085;SDS011;6609;49.882;8.664;2023-09-08T09:21:55;5.63;;;4.30;;
13085;SDS011;6609;49.882;8.664;2023-09-08T09:24:29;4.13;;;3.73;;
13085;SDS011;6609;49.882;8.664;2023-09-08T09:26:59;4.87;;;3.80;;
13085;SDS011;6609;49.882;8.664;2023-09-08T09:29:27;5.13;;;3.80;;
13085;SDS011;6609;49.882;8.664;2023-09-08T09:31:55;5.43;;;4.13;;
13085;SDS011;6609;49.882;8.664;2023-09-08T09:34:23;4.83;;;3.70;;
13085;SDS011;6609;49.882;8.664;2023-09-08T09:36:50;5.17;;;4.10;;
13085;SDS011;6609;49.882;8.664;2023-09-08T09:39:17;5.73;;;4.13;;
13085;SDS011;6609;49.882;8.664;2023-09-08T09:41:45;4.97;;;4.07;;
13085;SDS011;6609;49.882;8.664;2023-09-08T09:44:14;5.43;;;4.30;;
13085;SDS011;6609;49.882;8.664;2023-09-08T09:46:45;4.57;;;3.93;;
13085;SDS011;6609;49.882;8.664;2023-09-08T09:49:11;4.73;;;4.23;;
13085;SDS011;6609;49.882;8.664;2023-09-08T09:51:42;5.10;;;3.50;;
13085;SDS011;6609;49.882;8.664;2023-09-08T09:54:09;6.27;;;3.83;;
13085;SDS011;6609;49.882;8.664;2023-09-08T09:56:37;5.17;;;3.77;;
13085;SDS011;6609;49.882;8.664;2023-09-08T09:59:04;5.50;;;4.00;;
13085;SDS011;6609;49.882;8.664;2023-09-08T10:01:33;5.10;;;3.73;;
13085;SDS011;6609;49.882;8.664;2023-09-08T10:04:00;5.03;;;3.53;;
13085;SDS011;6609;49.882;8.664;2023-09-08T10:06:28;5.60;;;4.50;;
13085;SDS011;6609;49.882;8.664;2023-09-08T10:08:58;7.63;;;4.57;;
13085;SDS011;6609;49.882;8.664;2023-09-08T10:17:37;4.57;;;4.00;;
13085;SDS011;6609;49.882;8.664;2023-09-08T10:20:07;7.93;;;4.17;;
13085;SDS011;6609;49.882;8.664;2023-09-08T10:22:37;6.93;;;4.50;;
13085;SDS011;6609;49.882;8.664;2023-09-08T10:25:06;4.90;;;4.13;;
13085;SDS011;6609;49.882;8.664;2023-09-08T10:27:34;5.70;;;4.20;;
13085;SDS011;6609;49.882;8.664;2023-09-08T10:30:02;7.83;;;4.83;;
13085;SDS011;6609;49.882;8.664;2023-09-08T10:32:31;6.77;;;4.40;;
13085;SDS011;6609;49.882;8.664;2023-09-08T10:35:01;5.70;;;3.80;;
13085;SDS011;6609;49.882;8.664;2023-09-08T10:37:30;5.33;;;3.90;;
13085;SDS011;6609;49.882;8.664;2023-09-08T10:40:03;4.40;;;3.63;;
13085;SDS011;6609;49.882;8.664;2023-09-08T10:42:47;7.60;;;4.03;;
13085;SDS011;6609;49.882;8.664;2023-09-08T10:45:14;4.57;;;3.70;;
13085;SDS011;6609;49.882;8.664;2023-09-08T10:47:54;5.67;;;4.23;;
13085;SDS011;6609;49.882;8.664;2023-09-08T10:50:27;6.37;;;3.80;;
13085;SDS011;6609;49.882;8.664;2023-09-08T10:53:04;6.13;;;4.10;;
13085;SDS011;6609;49.882;8.664;2023-09-08T10:55:35;4.13;;;3.73;;
13085;SDS011;6609;49.882;8.664;2023-09-08T10:58:03;5.73;;;4.13;;
13085;SDS011;6609;49.882;8.664;2023-09-08T11:00:42;4.90;;;4.03;;
13085;SDS011;6609;49.882;8.664;2023-09-08T11:03:10;9.00;;;3.97;;
13085;SDS011;6609;49.882;8.664;2023-09-08T11:05:38;5.13;;;4.40;;
13085;SDS011;6609;49.882;8.664;2023-09-08T11:08:05;7.17;;;3.77;;
13085;SDS011;6609;49.882;8.664;2023-09-08T11:10:32;4.20;;;3.70;;
13085;SDS011;6609;49.882;8.664;2023-09-08T11:13:00;6.13;;;4.43;;
13085;SDS011;6609;49.882;8.664;2023-09-08T11:15:28;7.10;;;4.03;;
13085;SDS011;6609;49.882;8.664;2023-09-08T11:17:55;9.17;;;4.43;;
13085;SDS011;6609;49.882;8.664;2023-09-08T11:20:26;6.50;;;3.87;;
13085;SDS011;6609;49.882;8.664;2023-09-08T11:22:55;7.13;;;4.83;;
13085;SDS011;6609;49.882;8.664;2023-09-08T11:25:22;4.30;;;3.67;;
13085;SDS011;6609;49.882;8.664;2023-09-08T11:27:50;7.90;;;5.00;;
13085;SDS011;6609;49.882;8.664;2023-09-08T11:30:17;6.13;;;3.97;;
13085;SDS011;6609;49.882;8.664;2023-09-08T11:32:44;5.87;;;3.70;;
13085;SDS011;6609;49.882;8.664;2023-09-08T11:35:12;8.17;;;4.50;;
13085;SDS011;6609;49.882;8.664;2023-09-08T11:37:41;6.57;;;3.93;;
13085;SDS011;6609;49.882;8.664;2023-09-08T11:40:10;5.83;;;4.30;;
13085;SDS011;6609;49.882;8.664;2023-09-08T11:42:38;5.30;;;3.83;;
13085;SDS011;6609;49.882;8.664;2023-09-08T11:45:09;6.73;;;4.13;;
13085;SDS011;6609;49.882;8.664;2023-09-08T11:47:39;8.07;;;4.40;;
13085;SDS011;6609;49.882;8.664;2023-09-08T11:50:07;4.73;;;3.73;;
13085;SDS011;6609;49.882;8.664;2023-09-08T11:52:36;5.87;;;3.77;;
13085;SDS011;6609;49.882;8.664;2023-09-08T11:55:04;5.13;;;3.27;;
13085;SDS011;6609;49.882;8.664;2023-09-08T11:57:32;5.43;;;4.20;;
13085;SDS011;6609;49.882;8.664;2023-09-08T11:59:59;6.20;;;4.13;;
13085;SDS011;6609;49.882;8.664;2023-09-08T12:02:33;5.90;;;4.17;;
13085;SDS011;6609;49.882;8.664;2023-09-08T12:05:02;5.60;;;3.60;;
13085;SDS011;6609;49.882;8.664;2023-09-08T12:07:29;5.50;;;3.73;;
13085;SDS011;6609;49.882;8.664;2023-09-08T12:09:56;6.00;;;3.77;;
13085;SDS011;6609;49.882;8.664;2023-09-08T12:12:24;8.20;;;3.77;;
13085;SDS011;6609;49.882;8.664;2023-09-08T12:14:52;6.33;;;3.90;;
13085;SDS011;6609;49.882;8.664;2023-09-08T12:17:20;7.27;;;3.77;;
13085;SDS011;6609;49.882;8.664;2023-09-08T12:19:50;4.70;;;3.67;;
13085;SDS011;6609;49.882;8.664;2023-09-08T12:22:17;4.73;;;3.40;;
13085;SDS011;6609;49.882;8.664;2023-09-08T12:24:47;6.40;;;3.63;;
13085;SDS011;6609;49.882;8.664;2023-09-08T12:27:26;3.93;;;3.47;;
13085;SDS011;6609;49.882;8.664;2023-09-08T12:29:55;6.90;;;4.17;;
13085;SDS011;6609;49.882;8.664;2023-09-08T12:32:23;4.70;;;3.93;;
13085;SDS011;6609;49.882;8.664;2023-09-08T12:34:51;4.80;;;3.67;;
13085;SDS011;6609;49.882;8.664;2023-09-08T12:37:21;4.47;;;3.73;;
13085;SDS011;6609;49.882;8.664;2023-09-08T12:39:48;5.33;;;3.73;;
13085;SDS011;6609;49.882;8.664;2023-09-08T12:42:14;5.13;;;3.80;;
13085;SDS011;6609;49.882;8.664;2023-09-08T12:44:42;6.13;;;4.60;;
13085;SDS011;6609;49.882;8.664;2023-09-08T12:47:10;5.93;;;3.77;;
13085;SDS011;6609;49.882;8.664;2023-09-08T12:49:38;4.63;;;3.57;;
13085;SDS011;6609;49.882;8.664;2023-09-08T12:52:05;6.53;;;3.60;;
13085;SDS011;6609;49.882;8.664;2023-09-08T12:54:32;6.60;;;4.13;;
13085;SDS011;6609;49.882;8.664;2023-09-08T12:56:58;6.13;;;3.90;;
13085;SDS011;6609;49.882;8.664;2023-09-08T12:59:25;4.80;;;4.30;;
13085;SDS011;6609;49.882;8.664;2023-09-08T13:01:52;4.43;;;3.60;;
13085;SDS011;6609;49.882;8.664;2023-09-08T13:04:20;4.17;;;3.60;;
13085;SDS011;6609;49.882;8.664;2023-09-08T13:06:48;4.30;;;3.90;;
13085;SDS011;6609;49.882;8.664;2023-09-08T13:09:15;4.83;;;4.07;;
13085;SDS011;6609;49.882;8.664;2023-09-08T13:11:42;5.43;;;3.80;;
13085;SDS011;6609;49.882;8.664;2023-09-08T13:14:09;4.27;;;3.47;;
13085;SDS011;6609;49.882;8.664;2023-09-08T13:16:35;4.63;;;3.80;;
13085;SDS011;6609;49.882;8.664;2023-09-08T13:19:03;5.33;;;3.80;;
13085;SDS011;6609;49.882;8.664;2023-09-08T13:21:31;5.00;;;3.77;;
13085;SDS011;6609;49.882;8.664;2023-09-08T13:23:58;7.13;;;4.57;;
13085;SDS011;6609;49.882;8.664;2023-09-08T13:26:25;4.77;;;4.23;;
13085;SDS011;6609;49.882;8.664;2023-09-08T13:28:53;4.70;;;3.93;;
13085;SDS011;6609;49.882;8.664;2023-09-08T13:31:20;7.07;;;3.70;;
13085;SDS011;6609;49.882;8.664;2023-09-08T13:33:47;4.10;;;3.67;;
13085;SDS011;6609;49.882;8.664;2023-09-08T13:36:14;5.37;;;3.37;;
13085;SDS011;6609;49.882;8.664;2023-09-08T13:38:43;7.60;;;4.03;;
13085;SDS011;6609;49.882;8.664;2023-09-08T13:41:10;4.03;;;3.43;;
13085;SDS011;6609;49.882;8.664;2023-09-08T13:43:37;3.87;;;3.50;;
13085;SDS011;6609;49.882;8.664;2023-09-08T13:46:04;6.27;;;4.43;;
13085;SDS011;6609;49.882;8.664;2023-09-08T13:48:30;4.70;;;4.10;;
13085;SDS011;6609;49.882;8.664;2023-09-08T13:51:00;5.03;;;3.83;;
13085;SDS011;6609;49.882;8.664;2023-09-08T13:53:27;4.43;;;3.77;;
13085;SDS011;6609;49.882;8.664;2023-09-08T13:55:56;5.93;;;3.90;;
13085;SDS011;6609;49.882;8.664;2023-09-08T13:58:23;4.70;;;3.80;;
13085;SDS011;6609;49.882;8.664;2023-09-08T14:00:50;6.53;;;3.47;;
13085;SDS011;6609;49.882;8.664;2023-09-08T14:03:17;6.47;;;3.80;;
13085;SDS011;6609;49.882;8.664;2023-09-08T14:05:44;4.80;;;3.70;;
13085;SDS011;6609;49.882;8.664;2023-09-08T14:08:11;5.43;;;3.90;;
13085;SDS011;6609;49.882;8.664;2023-09-08T14:10:38;6.70;;;3.57;;
13085;SDS011;6609;49.882;8.664;2023-09-08T14:13:07;5.80;;;4.23;;
13085;SDS011;6609;49.882;8.664;2023-09-08T14:15:35;7.43;;;3.93;;
13085;SDS011;6609;49.882;8.664;2023-09-08T14:18:02;6.00;;;3.70;;
13085;SDS011;6609;49.882;8.664;2023-09-08T14:20:29;6.10;;;4.10;;
13085;SDS011;6609;49.882;8.664;2023-09-08T14:22:56;6.17;;;3.77;;
13085;SDS011;6609;49.882;8.664;2023-09-08T14:25:23;6.53;;;4.57;;
13085;SDS011;6609;49.882;8.664;2023-09-08T14:27:50;4.30;;;3.80;;
13085;SDS011;6609;49.882;8.664;2023-09-08T14:30:18;7.07;;;4.10;;
13085;SDS011;6609;49.882;8.664;2023-09-08T14:32:45;6.87;;;4.77;;
13085;SDS011;6609;49.882;8.664;2023-09-08T15:55:52;6.87;;;4.40;;
13085;SDS011;6609;49.882;8.664;2023-09-08T15:58:18;4.43;;;3.40;;
13085;SDS011;6609;49.882;8.664;2023-09-08T16:00:46;6.80;;;3.87;;
13085;SDS011;6609;49.882;8.664;2023-09-08T16:03:13;9.57;;;3.80;;
13085;SDS011;6609;49.882;8.664;2023-09-08T16:05:40;4.53;;;4.03;;
13085;SDS011;6609;49.882;8.664;2023-09-08T16:08:07;5.57;;;3.70;;
13085;SDS011;6609;49.882;8.664;2023-09-08T16:10:33;5.63;;;4.07;;
13085;SDS011;6609;49.882;8.664;2023-09-08T16:13:01;5.83;;;3.90;;
13085;SDS011;6609;49.882;8.664;2023-09-08T16:15:28;5.17;;;3.60;;
13085;SDS011;6609;49.882;8.664;2023-09-08T16:17:56;5.17;;;3.87;;
13085;SDS011;6609;49.882;8.664;2023-09-08T16:20:24;4.73;;;3.83;;
13085;SDS011;6609;49.882;8.664;2023-09-08T16:22:50;7.57;;;4.07;;
13085;SDS011;6609;49.882;8.664;2023-09-08T16:25:17;6.60;;;4.13;;
13085;SDS011;6609;49.882;8.664;2023-09-08T16:27:45;4.50;;;3.77;;
13085;SDS011;6609;49.882;8.664;2023-09-08T16:30:13;4.10;;;3.70;;